Time;durP1;ratioP1;P1;durP2;ratioP2;P2;SDS_P1;SDS_P2;PMS_P1;PMS_P2;Temp;Humidity;BMP_temperature;BMP_pressure;BME280_temperature;BME280_humidity;BME280_pressure;Samples;Min_cycle;Max_cycle;Signal;HPM_P1;HPM_P2
2022/08/12 00:44:32;;;;;;;6.40;2.17;;;26.60;99.90;;;;;;1850222;76;21200;-82
2022/08/12 00:47:04;;;;;;;5.58;2.52;;;26.60;99.90;;;;;;1848465;76;21176;-81
2022/08/12 00:49:37;;;;;;;3.33;2.02;;;26.70;99.90;;;;;;1851782;76;21720;-80
2022/08/12 00:52:09;;;;;;;5.67;2.47;;;26.70;99.90;;;;;;1837333;77;21092;-80
2022/08/12 00:54:43;;;;;;;6.37;2.37;;;26.70;99.90;;;;;;1839304;76;21115;-80
2022/08/12 00:57:16;;;;;;;6.20;2.47;;;26.80;99.90;;;;;;1838774;76;21715;-80
2022/08/12 00:59:49;;;;;;;7.37;2.70;;;26.80;99.90;;;;;;1842239;76;21124;-81
2022/08/12 01:02:23;;;;;;;6.08;2.27;;;26.80;99.50;;;;;;1847087;76;21142;-82
2022/08/12 01:12:38;;;;;;;9.45;2.17;;;26.90;99.30;;;;;;1821763;77;21168;-81
2022/08/12 01:15:12;;;;;;;6.12;2.45;;;26.90;99.20;;;;;;1794799;78;21775;-81
2022/08/12 01:17:45;;;;;;;6.53;2.00;;;26.90;99.10;;;;;;1821405;77;21234;-81
2022/08/12 01:20:18;;;;;;;9.08;1.95;;;26.90;99.10;;;;;;1864727;76;21200;-80
2022/08/12 01:22:51;;;;;;;5.55;1.87;;;27.00;98.60;;;;;;1816401;79;21172;-80
2022/08/12 01:25:26;;;;;;;10.18;2.50;;;26.90;99.00;;;;;;1784385;79;21766;-83
2022/08/12 01:27:59;;;;;;;6.05;2.10;;;27.00;99.10;;;;;;1759381;79;21155;-82
2022/08/12 01:30:32;;;;;;;4.67;2.12;;;27.00;98.90;;;;;;1789513;78;21271;-81
2022/08/12 01:33:05;;;;;;;6.05;2.00;;;27.10;99.00;;;;;;1846783;77;21123;-80
2022/08/12 01:35:39;;;;;;;6.70;2.10;;;27.10;99.20;;;;;;1851355;76;21198;-80
2022/08/12 01:38:11;;;;;;;5.80;2.20;;;27.10;99.10;;;;;;1861718;76;21183;-81
2022/08/12 01:40:44;;;;;;;9.40;2.08;;;27.20;99.10;;;;;;1847527;76;21151;-80
2022/08/12 01:43:20;;;;;;;9.08;2.90;;;27.20;98.60;;;;;;1867035;76;21142;-81
2022/08/12 01:45:52;;;;;;;5.35;2.40;;;27.30;99.10;;;;;;1845058;76;21136;-81
2022/08/12 01:48:27;;;;;;;10.55;2.87;;;27.30;98.80;;;;;;1832460;78;21170;-81
2022/08/12 01:51:01;;;;;;;9.43;2.85;;;27.30;98.80;;;;;;1806213;77;21101;-81
2022/08/12 01:53:35;;;;;;;8.50;2.45;;;27.40;98.70;;;;;;1847820;76;21130;-81
2022/08/12 01:56:09;;;;;;;4.70;1.70;;;27.40;98.50;;;;;;1810058;77;21142;-82
2022/08/12 02:01:15;;;;;;;6.03;2.52;;;27.40;98.00;;;;;;1851568;76;21097;-81
2022/08/12 02:11:33;;;;;;;7.53;2.72;;;27.40;97.90;;;;;;1849359;76;21150;-83
2022/08/12 02:14:10;;;;;;;7.78;2.30;;;27.50;97.80;;;;;;1811379;79;21234;-81
2022/08/12 02:16:44;;;;;;;6.35;2.40;;;27.50;98.00;;;;;;1845280;76;21154;-81
2022/08/12 02:19:16;;;;;;;6.78;2.42;;;27.50;97.80;;;;;;1848155;76;21650;-81
2022/08/12 02:21:51;;;;;;;6.60;2.22;;;27.50;98.00;;;;;;1855285;76;21810;-81
2022/08/12 02:24:23;;;;;;;3.92;1.80;;;27.40;98.00;;;;;;1846702;76;21149;-82
2022/08/12 02:26:57;;;;;;;5.70;2.30;;;27.50;98.30;;;;;;1848165;76;21218;-81
2022/08/12 02:29:29;;;;;;;7.20;2.08;;;27.60;98.30;;;;;;1847631;76;21162;-80
2022/08/12 02:32:00;;;;;;;5.95;2.27;;;27.70;98.00;;;;;;1836222;77;21232;-82
2022/08/12 02:34:33;;;;;;;5.62;1.90;;;27.80;98.30;;;;;;1817888;79;21621;-80
2022/08/12 02:37:05;;;;;;;7.90;2.10;;;27.90;97.50;;;;;;1829699;78;22013;-80
2022/08/12 02:39:39;;;;;;;7.15;1.80;;;28.00;97.50;;;;;;1834856;78;21728;-81
2022/08/12 02:42:13;;;;;;;6.45;1.77;;;28.10;97.50;;;;;;1822633;78;21172;-80
2022/08/12 02:44:46;;;;;;;5.78;2.00;;;28.30;97.50;;;;;;1825811;78;21122;-81
2022/08/12 02:47:20;;;;;;;7.58;2.05;;;28.40;96.70;;;;;;1853556;76;21247;-82
2022/08/12 02:49:55;;;;;;;6.42;2.35;;;28.40;96.70;;;;;;1828438;78;21178;-81
2022/08/12 02:52:27;;;;;;;6.45;2.08;;;28.50;96.50;;;;;;1810713;78;21146;-82
2022/08/12 02:55:00;;;;;;;7.33;1.98;;;28.50;96.40;;;;;;1840739;78;21209;-82
2022/08/12 02:57:34;;;;;;;8.53;2.17;;;28.60;96.50;;;;;;1840392;77;21244;-82
2022/08/12 03:00:08;;;;;;;8.45;2.02;;;28.60;96.30;;;;;;1835033;78;21228;-81
2022/08/12 03:02:43;;;;;;;5.80;2.25;;;28.70;95.80;;;;;;1814781;78;21160;-82
2022/08/12 03:05:16;;;;;;;4.78;1.92;;;28.70;96.20;;;;;;1845161;77;21153;-80
2022/08/12 03:07:49;;;;;;;4.10;1.60;;;28.80;96.10;;;;;;1819507;78;21184;-81
2022/08/12 03:10:23;;;;;;;5.25;1.67;;;28.90;95.80;;;;;;1817029;78;21202;-82
2022/08/12 03:12:58;;;;;;;5.10;2.12;;;29.10;95.20;;;;;;1832818;77;21211;-83
2022/08/12 03:15:29;;;;;;;6.28;1.57;;;29.10;96.20;;;;;;1857513;77;21190;-82
2022/08/12 03:18:03;;;;;;;6.15;1.85;;;29.30;95.30;;;;;;1847194;76;21165;-80
2022/08/12 03:20:39;;;;;;;3.35;1.72;;;29.40;95.60;;;;;;1855836;76;21278;-81
2022/08/12 03:23:12;;;;;;;6.03;2.25;;;29.40;95.30;;;;;;1855052;76;21077;-81
2022/08/12 03:25:44;;;;;;;7.90;1.80;;;29.40;94.90;;;;;;1817311;78;21160;-82
2022/08/12 03:28:49;;;;;;;8.23;1.55;;;29.40;94.70;;;;;;1817372;79;21140;-81
2022/08/12 03:30:52;;;;;;;6.60;2.02;;;29.50;94.70;;;;;;1822463;77;21146;-81
2022/08/12 03:33:26;;;;;;;4.78;1.60;;;29.50;94.50;;;;;;1826035;77;22028;-81
2022/08/12 03:35:59;;;;;;;6.47;2.62;;;29.40;94.40;;;;;;1818558;79;21076;-81
2022/08/12 03:38:33;;;;;;;5.60;1.57;;;29.40;94.80;;;;;;1830953;78;21127;-81
2022/08/12 04:01:56;;;;;;;4.70;1.62;;;28.80;95.40;;;;;;1837555;77;21140;-82
2022/08/12 04:04:24;;;;;;;6.35;2.05;;;28.80;96.10;;;;;;1840250;77;21582;-83
2022/08/12 04:06:56;;;;;;;5.15;1.55;;;28.90;96.00;;;;;;1818581;77;21222;-84
2022/08/12 04:09:28;;;;;;;3.60;1.57;;;28.90;95.90;;;;;;1820038;78;21188;-82
2022/08/12 04:14:33;;;;;;;5.35;1.60;;;29.00;95.90;;;;;;1829524;78;21173;-82
2022/08/12 04:17:04;;;;;;;6.90;1.80;;;29.00;95.40;;;;;;1833670;78;21170;-82
2022/08/12 04:19:36;;;;;;;4.37;1.40;;;29.00;95.40;;;;;;1832887;76;21189;-83
2022/08/12 04:22:08;;;;;;;4.95;1.45;;;29.00;95.20;;;;;;1836053;78;21064;-80
2022/08/12 04:24:40;;;;;;;4.83;1.62;;;28.90;95.70;;;;;;1834813;78;21201;-81
2022/08/12 04:27:12;;;;;;;3.45;1.72;;;28.90;95.80;;;;;;1830531;78;21227;-82
2022/08/12 04:29:43;;;;;;;3.35;1.40;;;28.90;95.70;;;;;;1835304;78;21206;-80
2022/08/12 04:32:16;;;;;;;7.12;1.60;;;28.80;95.50;;;;;;1825971;78;21092;-82
2022/08/12 04:34:47;;;;;;;3.37;1.57;;;28.80;95.70;;;;;;1833317;77;21130;-82
2022/08/12 04:37:18;;;;;;;4.05;1.98;;;28.80;95.60;;;;;;1834103;77;21198;-81
2022/08/12 04:39:51;;;;;;;8.28;2.70;;;28.80;95.70;;;;;;1827624;77;21245;-83
2022/08/12 04:42:26;;;;;;;3.90;1.80;;;28.80;96.10;;;;;;1830429;77;21174;-82
2022/08/12 04:44:56;;;;;;;7.62;2.10;;;28.80;96.10;;;;;;1832930;77;21059;-82
2022/08/12 04:47:28;;;;;;;4.40;2.00;;;28.80;95.90;;;;;;1848871;77;21094;-81
2022/08/12 04:50:00;;;;;;;6.67;2.02;;;28.80;96.10;;;;;;1825501;77;21209;-81
2022/08/12 04:52:33;;;;;;;8.18;2.15;;;28.80;95.70;;;;;;1814504;78;21128;-82
2022/08/12 04:55:04;;;;;;;6.35;1.90;;;28.70;96.00;;;;;;1808520;79;21173;-83
2022/08/12 04:57:36;;;;;;;4.95;1.75;;;28.80;96.30;;;;;;1808980;79;21199;-82
2022/08/12 05:00:15;;;;;;;5.35;2.00;;;28.80;96.20;;;;;;1808191;79;21214;-82
2022/08/12 05:02:43;;;;;;;5.22;1.62;;;28.80;96.30;;;;;;1807639;79;21248;-82
2022/08/12 05:05:19;;;;;;;4.28;1.87;;;28.70;96.30;;;;;;1806497;79;21174;-82
2022/08/12 05:07:50;;;;;;;7.92;2.20;;;28.80;96.40;;;;;;1821252;78;21239;-82
2022/08/12 05:10:24;;;;;;;9.55;2.77;;;28.70;96.20;;;;;;1788134;80;21180;-82
2022/08/12 05:12:58;;;;;;;6.50;2.37;;;28.80;96.40;;;;;;1788171;79;21168;-83
2022/08/12 05:15:29;;;;;;;5.72;2.35;;;28.80;96.30;;;;;;1813934;79;21178;-83
2022/08/12 05:18:20;;;;;;;6.30;2.50;;;28.80;96.40;;;;;;1807735;78;21229;-82
2022/08/12 05:20:51;;;;;;;8.35;2.37;;;28.80;96.50;;;;;;1766280;81;21147;-82
2022/08/12 05:23:22;;;;;;;4.60;1.98;;;28.80;96.60;;;;;;1775798;79;21163;-82
2022/08/12 05:25:55;;;;;;;6.15;2.30;;;28.80;96.30;;;;;;1774970;81;21241;-82
2022/08/12 05:28:29;;;;;;;6.28;1.90;;;28.80;96.30;;;;;;1787036;78;21171;-82
2022/08/12 05:31:00;;;;;;;3.52;1.75;;;28.90;96.00;;;;;;1801984;79;21165;-82
2022/08/12 05:33:39;;;;;;;5.58;1.80;;;28.90;95.60;;;;;;1802084;79;21568;-83
2022/08/12 05:36:07;;;;;;;4.08;1.85;;;28.90;95.80;;;;;;1802833;79;21219;-81
2022/08/12 05:41:19;;;;;;;4.37;1.60;;;28.80;96.30;;;;;;1800058;79;21090;-82
2022/08/12 05:43:42;;;;;;;7.12;1.98;;;28.80;96.20;;;;;;1803240;78;21168;-82
2022/08/12 05:46:15;;;;;;;6.87;2.55;;;28.80;96.20;;;;;;1803577;78;21221;-82
2022/08/12 05:48:46;;;;;;;7.42;1.98;;;28.80;96.40;;;;;;1806725;78;21128;-82
2022/08/12 05:51:17;;;;;;;4.62;2.15;;;28.70;96.50;;;;;;1817131;78;21138;-82
2022/08/12 05:53:50;;;;;;;5.45;2.25;;;28.70;96.60;;;;;;1812044;78;21621;-83
2022/08/12 05:56:23;;;;;;;3.45;1.65;;;28.60;96.70;;;;;;1799100;80;21621;-82
2022/08/12 05:58:55;;;;;;;6.12;1.62;;;28.60;96.90;;;;;;1801146;79;21179;-82
2022/08/12 06:01:27;;;;;;;7.37;1.92;;;28.50;96.80;;;;;;1801716;79;21159;-82
2022/08/12 06:04:00;;;;;;;4.50;1.65;;;28.50;97.00;;;;;;1798604;78;21173;-82
2022/08/12 06:06:40;;;;;;;5.85;2.20;;;28.50;97.00;;;;;;1816458;78;21136;-82
2022/08/12 06:09:04;;;;;;;5.85;2.17;;;28.60;97.40;;;;;;1800630;78;21149;-82
2022/08/12 06:11:35;;;;;;;5.72;1.55;;;28.50;97.10;;;;;;1801012;79;21708;-82
2022/08/12 06:14:07;;;;;;;4.83;1.82;;;28.60;97.10;;;;;;1802631;79;21154;-82
2022/08/12 06:16:39;;;;;;;5.17;1.90;;;28.60;97.00;;;;;;1803824;78;21084;-82
2022/08/12 06:19:11;;;;;;;7.37;2.60;;;28.50;97.10;;;;;;1804826;78;21137;-82
2022/08/12 06:21:42;;;;;;;6.17;2.08;;;28.50;97.70;;;;;;1833815;78;21564;-82
2022/08/12 06:24:13;;;;;;;6.58;2.27;;;28.50;97.20;;;;;;1835064;77;21194;-82
2022/08/12 06:26:44;;;;;;;6.08;2.10;;;28.60;97.30;;;;;;1834744;77;21152;-83
2022/08/12 06:29:18;;;;;;;5.80;2.30;;;28.70;97.20;;;;;;1847569;77;21130;-82
2022/08/12 06:31:49;;;;;;;5.03;1.95;;;28.80;97.10;;;;;;1828223;77;21597;-83
2022/08/12 06:34:20;;;;;;;4.17;2.12;;;28.90;96.70;;;;;;1831846;78;21693;-82
2022/08/12 06:36:53;;;;;;;6.10;2.02;;;28.90;96.40;;;;;;1835315;77;21110;-82
2022/08/12 06:39:24;;;;;;;6.58;2.20;;;28.90;96.40;;;;;;1830389;78;21142;-81
2022/08/12 06:44:31;;;;;;;7.28;3.20;;;28.90;96.70;;;;;;1829581;77;21196;-82
2022/08/12 06:47:03;;;;;;;4.22;2.12;;;29.00;96.60;;;;;;1841510;77;21712;-81
2022/08/12 06:49:35;;;;;;;4.60;2.10;;;29.10;96.20;;;;;;1838398;77;21225;-81
2022/08/12 06:52:06;;;;;;;4.65;2.20;;;29.20;96.00;;;;;;1835399;78;21603;-81
2022/08/12 06:54:38;;;;;;;4.95;1.90;;;29.30;96.40;;;;;;1834330;78;21732;-82
2022/08/12 06:57:09;;;;;;;3.75;1.72;;;29.30;95.90;;;;;;1832567;78;21222;-81
2022/08/12 06:59:43;;;;;;;5.35;1.92;;;29.30;95.60;;;;;;1830350;77;21212;-81
2022/08/12 07:02:14;;;;;;;4.45;1.85;;;29.30;95.40;;;;;;1830063;78;21206;-82
2022/08/12 07:04:48;;;;;;;6.97;2.37;;;29.30;95.50;;;;;;1829885;78;21756;-83
2022/08/12 07:07:20;;;;;;;7.53;2.35;;;29.30;95.50;;;;;;1834376;78;21088;-83
2022/08/12 07:09:51;;;;;;;3.80;1.72;;;29.30;95.30;;;;;;1833654;78;21236;-83
2022/08/12 07:12:23;;;;;;;6.53;1.85;;;29.30;95.80;;;;;;1826556;77;21186;-83
2022/08/12 07:14:56;;;;;;;4.72;1.70;;;29.40;95.10;;;;;;1834647;77;21294;-84
2022/08/12 07:17:35;;;;;;;6.17;1.75;;;29.30;94.90;;;;;;1828248;78;21099;-83
2022/08/12 07:20:00;;;;;;;6.78;2.00;;;29.30;95.60;;;;;;1826982;77;21170;-84
2022/08/12 07:22:32;;;;;;;8.90;2.02;;;29.30;95.10;;;;;;1826236;78;21603;-83
2022/08/12 07:27:39;;;;;;;7.65;2.20;;;29.20;95.90;;;;;;1795763;80;21187;-83
2022/08/12 07:30:13;;;;;;;5.62;2.40;;;29.20;95.80;;;;;;1812040;78;21807;-83
2022/08/12 07:32:48;;;;;;;6.37;2.33;;;29.10;95.80;;;;;;1801854;78;21183;-82
2022/08/12 07:35:19;;;;;;;4.83;2.15;;;29.10;95.80;;;;;;1803461;79;21085;-81
2022/08/12 07:37:52;;;;;;;5.37;1.82;;;29.10;95.90;;;;;;1817416;77;21089;-83
2022/08/12 07:40:23;;;;;;;3.22;1.87;;;29.00;96.10;;;;;;1817671;79;21164;-82
2022/08/12 07:42:55;;;;;;;4.30;1.50;;;29.00;95.10;;;;;;1744211;81;21130;-82
2022/08/12 07:45:26;;;;;;;6.30;1.90;;;29.00;95.30;;;;;;1787855;78;21209;-81
2022/08/12 07:47:57;;;;;;;5.22;1.80;;;28.90;95.40;;;;;;1763405;80;21151;-79
2022/08/12 07:50:28;;;;;;;5.25;1.70;;;28.90;95.90;;;;;;1787111;79;21182;-83
2022/08/12 07:53:10;;;;;;;5.08;1.92;;;28.90;95.60;;;;;;1782994;80;21121;-82
2022/08/12 07:55:38;;;;;;;5.28;2.08;;;28.90;95.60;;;;;;1770546;74;21222;-82
2022/08/12 07:58:10;;;;;;;4.20;1.62;;;28.90;95.70;;;;;;1872605;76;21129;-82
2022/08/12 08:00:45;;;;;;;4.17;2.05;;;28.90;95.90;;;;;;1921110;75;21324;-82
2022/08/12 08:03:21;;;;;;;5.10;2.22;;;28.90;95.90;;;;;;1819840;76;21259;-83
2022/08/12 08:06:15;;;;;;;4.08;1.92;;;28.90;95.80;;;;;;1856157;76;21769;-83
2022/08/12 08:08:46;;;;;;;4.15;2.27;;;28.80;95.80;;;;;;1845444;76;21240;-83
2022/08/12 08:13:49;;;;;;;5.03;1.80;;;28.80;95.90;;;;;;1880286;75;21157;-82
2022/08/12 08:16:21;;;;;;;4.80;1.62;;;28.80;96.00;;;;;;1879863;76;21104;-81
2022/08/12 08:18:54;;;;;;;5.65;2.20;;;28.80;96.00;;;;;;1879467;73;21143;-81
2022/08/12 08:21:31;;;;;;;5.65;1.98;;;28.80;96.10;;;;;;1879429;76;21147;-81
2022/08/12 08:26:30;;;;;;;6.15;1.90;;;28.80;95.90;;;;;;1878294;76;21289;-83
2022/08/12 08:29:01;;;;;;;3.42;1.67;;;28.80;96.00;;;;;;1880855;76;21056;-83
2022/08/12 08:31:33;;;;;;;4.47;1.72;;;28.90;96.20;;;;;;1859797;74;21072;-84
2022/08/12 08:34:05;;;;;;;3.65;1.70;;;28.90;96.10;;;;;;1880908;76;21167;-82
2022/08/12 08:36:38;;;;;;;4.17;1.85;;;28.90;96.00;;;;;;1877376;75;21187;-82
2022/08/12 08:39:12;;;;;;;5.25;1.70;;;28.90;95.60;;;;;;1881568;76;21151;-82
2022/08/12 08:44:19;;;;;;;4.05;1.85;;;28.90;95.90;;;;;;1882626;75;21099;-83
2022/08/12 08:46:54;;;;;;;4.35;1.55;;;28.90;96.00;;;;;;1875132;75;21091;-83
2022/08/12 08:49:24;;;;;;;5.67;1.90;;;28.90;95.90;;;;;;1877872;76;21091;-84
2022/08/12 08:51:55;;;;;;;3.30;1.52;;;28.90;96.00;;;;;;1871299;74;21208;-85
2022/08/12 08:54:26;;;;;;;3.60;1.72;;;28.90;95.80;;;;;;1818927;77;21116;-84
2022/08/12 08:56:57;;;;;;;3.33;1.82;;;28.90;96.00;;;;;;1861986;76;21116;-84
2022/08/12 08:59:28;;;;;;;4.95;1.70;;;28.80;95.90;;;;;;1849947;77;21144;-84
2022/08/12 09:02:01;;;;;;;8.45;1.98;;;28.80;96.00;;;;;;1855346;76;21250;-84
2022/08/12 09:04:32;;;;;;;4.17;1.52;;;28.80;96.10;;;;;;1841117;76;21191;-84
2022/08/12 09:07:04;;;;;;;4.67;1.70;;;28.80;96.00;;;;;;1838767;76;21053;-83
2022/08/12 09:09:38;;;;;;;5.65;1.50;;;28.70;96.10;;;;;;1866351;76;21108;-83
2022/08/12 09:14:44;;;;;;;4.53;1.77;;;28.70;96.20;;;;;;1838401;76;21171;-83
2022/08/12 09:17:19;;;;;;;2.27;1.55;;;28.70;96.30;;;;;;1850939;77;21069;-84
2022/08/12 09:19:50;;;;;;;6.40;2.25;;;28.70;96.20;;;;;;1854550;76;21703;-84
2022/08/12 09:22:22;;;;;;;5.85;2.40;;;28.70;96.40;;;;;;1838118;76;21790;-83
2022/08/12 09:24:54;;;;;;;7.95;2.37;;;28.70;96.50;;;;;;1870218;76;21131;-84
2022/08/12 09:27:26;;;;;;;6.55;2.22;;;28.70;96.60;;;;;;1855419;76;21204;-83
2022/08/12 09:29:59;;;;;;;8.00;2.27;;;28.70;96.60;;;;;;1841391;77;21194;-83
2022/08/12 09:32:33;;;;;;;7.85;2.30;;;28.70;96.60;;;;;;1857540;77;21082;-84
2022/08/12 09:35:10;;;;;;;6.95;3.25;;;28.70;96.50;;;;;;1838406;76;21135;-83
2022/08/12 09:37:42;;;;;;;4.62;2.83;;;28.70;96.50;;;;;;1843368;77;21147;-85
2022/08/12 09:40:15;;;;;;;5.10;2.40;;;28.70;96.70;;;;;;1843674;77;21123;-84
2022/08/12 09:45:23;;;;;;;4.62;1.98;;;28.70;97.10;;;;;;1841123;77;21152;-83
2022/08/12 09:47:55;;;;;;;7.25;2.37;;;28.70;96.70;;;;;;1839429;76;21068;-84
2022/08/12 09:50:31;;;;;;;5.10;2.45;;;28.70;96.60;;;;;;1844205;77;21128;-85
2022/08/12 09:53:04;;;;;;;5.30;1.90;;;28.70;96.50;;;;;;1834896;76;21101;-85
2022/08/12 09:55:39;;;;;;;4.60;2.00;;;28.70;96.40;;;;;;1846397;77;21136;-85
2022/08/12 09:58:12;;;;;;;4.20;2.08;;;28.80;96.60;;;;;;1845941;77;21147;-84
2022/08/12 10:00:50;;;;;;;5.67;2.40;;;28.80;96.50;;;;;;1833158;77;21286;-84
2022/08/12 10:03:20;;;;;;;5.15;1.98;;;28.80;96.50;;;;;;1848785;76;21143;-84
2022/08/12 10:05:53;;;;;;;5.85;1.90;;;28.80;96.70;;;;;;1848896;77;21117;-84
2022/08/12 10:08:30;;;;;;;8.63;3.27;;;28.80;96.00;;;;;;1842949;76;21136;-86
2022/08/12 10:13:42;;;;;;;5.10;1.80;;;28.80;96.30;;;;;;1848931;76;20202;-83
2022/08/12 10:16:16;;;;;;;6.90;2.25;;;28.80;96.10;;;;;;1828983;77;21166;-84
2022/08/12 10:18:52;;;;;;;5.40;2.33;;;28.80;96.10;;;;;;1837089;76;21575;-84
2022/08/12 10:21:25;;;;;;;3.67;2.17;;;28.80;96.00;;;;;;1844883;77;21560;-84
2022/08/12 10:23:58;;;;;;;5.65;2.67;;;28.80;96.00;;;;;;1852280;76;21619;-84
2022/08/12 10:31:44;;;;;;;4.17;2.80;;;28.80;96.30;;;;;;1849390;76;21192;-83
2022/08/12 10:34:16;;;;;;;6.67;2.60;;;28.90;96.30;;;;;;1832256;77;21141;-84
2022/08/12 10:36:49;;;;;;;7.80;2.45;;;28.90;96.50;;;;;;1859153;76;21239;-84
2022/08/12 10:39:21;;;;;;;4.42;2.65;;;28.90;96.50;;;;;;1842470;77;21229;-84
2022/08/12 10:44:28;;;;;;;5.55;2.85;;;28.80;96.40;;;;;;1818781;78;21180;-83
2022/08/12 10:46:59;;;;;;;7.42;2.52;;;28.80;96.40;;;;;;1811624;78;21167;-85
2022/08/12 10:49:36;;;;;;;7.05;2.45;;;28.80;96.50;;;;;;1810607;78;21085;-84
2022/08/12 10:52:07;;;;;;;5.62;2.60;;;28.80;96.60;;;;;;1779379;78;21155;-84
2022/08/12 10:54:41;;;;;;;8.50;2.60;;;28.80;96.70;;;;;;1833182;77;21116;-84
2022/08/12 10:57:15;;;;;;;5.72;2.90;;;28.80;96.80;;;;;;1832866;76;21104;-84
2022/08/12 10:59:47;;;;;;;5.10;2.72;;;28.80;96.90;;;;;;1825164;76;21128;-84
2022/08/12 11:02:21;;;;;;;7.28;2.58;;;28.80;97.00;;;;;;1844737;76;21192;-84
2022/08/12 11:04:58;;;;;;;10.25;4.35;;;28.70;96.90;;;;;;1867151;76;21138;-83
2022/08/12 11:07:34;;;;;;;6.12;2.65;;;28.70;97.00;;;;;;1855040;76;21124;-83
2022/08/12 11:10:01;;;;;;;8.60;3.27;;;28.70;97.00;;;;;;1843287;76;21254;-84
2022/08/12 11:12:40;;;;;;;7.08;2.72;;;28.70;97.00;;;;;;1852373;76;21655;-84
2022/08/12 11:15:07;;;;;;;5.67;2.87;;;28.70;97.00;;;;;;1860607;76;21135;-84
2022/08/12 11:17:39;;;;;;;10.03;2.70;;;28.70;97.00;;;;;;1866505;75;21104;-84
2022/08/12 11:20:12;;;;;;;7.60;3.20;;;28.70;97.10;;;;;;1867513;76;21138;-83
2022/08/12 11:22:45;;;;;;;7.67;3.20;;;28.70;97.10;;;;;;1875382;75;21097;-83
2022/08/12 11:25:17;;;;;;;7.15;4.08;;;28.70;97.20;;;;;;1866677;76;21194;-82
2022/08/12 11:27:49;;;;;;;9.73;4.65;;;28.60;97.20;;;;;;1847089;76;21105;-83
2022/08/12 11:30:21;;;;;;;6.65;3.20;;;28.70;97.20;;;;;;1871536;75;21175;-84
2022/08/12 11:32:54;;;;;;;8.38;3.30;;;28.70;97.30;;;;;;1848578;75;21096;-82
2022/08/12 11:35:26;;;;;;;7.62;3.27;;;28.60;97.30;;;;;;1857917;76;21173;-83
2022/08/12 11:38:00;;;;;;;5.80;3.20;;;28.60;97.30;;;;;;1847717;76;21141;-84
2022/08/12 11:40:32;;;;;;;10.00;3.62;;;28.60;97.30;;;;;;1862536;75;21520;-84
2022/08/12 11:43:03;;;;;;;9.38;3.30;;;28.70;97.40;;;;;;1868292;75;21079;-84
2022/08/12 11:45:35;;;;;;;8.20;3.25;;;28.60;97.40;;;;;;1850589;76;21151;-83
2022/08/12 11:48:07;;;;;;;8.93;3.87;;;28.60;97.40;;;;;;1832291;78;21599;-83
2022/08/12 11:50:42;;;;;;;13.08;5.17;;;28.60;97.40;;;;;;1854654;75;21175;-83
2022/08/12 11:53:12;;;;;;;9.65;4.35;;;28.60;97.20;;;;;;1877314;75;21611;-84
2022/08/12 11:55:45;;;;;;;7.55;4.00;;;28.60;97.40;;;;;;1853946;76;21162;-83
2022/08/12 11:58:16;;;;;;;11.35;3.65;;;28.60;97.90;;;;;;1824597;78;21232;-83
2022/08/12 12:00:48;;;;;;;8.88;3.70;;;28.60;97.60;;;;;;1846294;76;21252;-83
2022/08/12 12:03:20;;;;;;;8.98;4.15;;;28.60;97.70;;;;;;1831668;76;21588;-84
2022/08/12 12:05:51;;;;;;;16.93;8.80;;;28.60;97.60;;;;;;1846967;77;21632;-83
2022/08/12 12:08:25;;;;;;;12.85;7.65;;;28.60;97.60;;;;;;1828113;77;21168;-83
2022/08/12 12:10:58;;;;;;;15.28;7.20;;;28.60;97.70;;;;;;1850733;76;21162;-83
2022/08/12 12:13:29;;;;;;;12.03;5.67;;;28.60;97.70;;;;;;1877998;74;21162;-83
2022/08/12 12:16:01;;;;;;;12.35;6.47;;;28.60;97.80;;;;;;1899480;74;21492;-85
2022/08/12 12:18:34;;;;;;;16.67;5.90;;;28.60;97.80;;;;;;1894573;74;21182;-83
2022/08/12 12:21:07;;;;;;;8.98;5.03;;;28.50;97.90;;;;;;1855963;75;21068;-83
2022/08/12 12:23:39;;;;;;;10.08;5.45;;;28.50;97.90;;;;;;1822515;78;21675;-83
2022/08/12 12:26:11;;;;;;;11.53;6.55;;;28.50;97.90;;;;;;1829579;77;21107;-83
2022/08/12 12:28:43;;;;;;;14.53;7.28;;;28.50;97.90;;;;;;1828898;77;21173;-83
2022/08/12 12:31:16;;;;;;;9.60;4.90;;;28.50;97.90;;;;;;1829324;77;21170;-83
2022/08/12 12:33:48;;;;;;;14.07;7.12;;;28.50;97.90;;;;;;1806529;77;21159;-83
2022/08/12 12:36:21;;;;;;;14.73;8.40;;;28.50;98.00;;;;;;1807007;77;21222;-83
2022/08/12 12:38:53;;;;;;;12.15;7.80;;;28.50;98.00;;;;;;1881323;74;21658;-82
2022/08/12 12:41:24;;;;;;;13.20;6.60;;;28.50;98.00;;;;;;1889558;76;21138;-82
2022/08/12 12:43:56;;;;;;;9.60;5.60;;;28.50;98.00;;;;;;1886626;76;21211;-81
2022/08/12 12:46:28;;;;;;;9.58;5.03;;;28.50;98.00;;;;;;1869338;75;21287;-83
2022/08/12 12:48:59;;;;;;;10.48;5.50;;;28.50;98.10;;;;;;1896370;74;21059;-84
2022/08/12 12:51:34;;;;;;;16.15;5.47;;;28.50;98.10;;;;;;1882144;74;21183;-84
2022/08/12 12:54:09;;;;;;;11.95;5.60;;;28.50;98.00;;;;;;1883384;74;21163;-84
2022/08/12 12:56:40;;;;;;;10.58;5.20;;;28.50;98.00;;;;;;1843102;76;21980;-85
2022/08/12 12:59:12;;;;;;;11.80;4.90;;;28.60;98.20;;;;;;1826955;78;21099;-83
2022/08/12 13:01:44;;;;;;;13.90;5.83;;;28.50;98.20;;;;;;1815350;78;21163;-84
2022/08/12 13:04:17;;;;;;;8.28;5.00;;;28.50;98.20;;;;;;1841189;77;21113;-84
2022/08/12 13:06:51;;;;;;;10.43;4.80;;;28.50;98.20;;;;;;1886904;75;21136;-82
2022/08/12 13:09:21;;;;;;;12.58;5.50;;;28.50;98.60;;;;;;1885582;74;21203;-82
2022/08/12 13:11:54;;;;;;;9.75;4.97;;;28.50;98.40;;;;;;1885464;76;21225;-84
2022/08/12 13:14:26;;;;;;;10.08;4.72;;;28.50;98.40;;;;;;1880602;74;21135;-82
2022/08/12 13:16:59;;;;;;;10.30;4.80;;;28.50;98.40;;;;;;1882002;74;21143;-83
2022/08/12 13:19:35;;;;;;;13.90;5.03;;;28.50;98.70;;;;;;1891391;74;21190;-84
2022/08/12 13:22:16;;;;;;;10.03;4.67;;;28.40;98.80;;;;;;1881122;74;21118;-83
2022/08/12 13:24:46;;;;;;;11.08;4.33;;;28.40;98.80;;;;;;1910480;74;21192;-84
2022/08/12 13:27:19;;;;;;;9.28;4.42;;;28.40;98.70;;;;;;1887540;76;21282;-83
2022/08/12 13:29:50;;;;;;;9.28;4.45;;;28.40;98.60;;;;;;1899294;74;21129;-84
2022/08/12 13:32:28;;;;;;;8.53;4.67;;;28.40;98.60;;;;;;1885432;76;21227;-83
2022/08/12 13:35:02;;;;;;;11.38;4.47;;;28.30;98.60;;;;;;1890118;76;21159;-83
2022/08/12 13:37:39;;;;;;;10.93;4.83;;;28.30;98.50;;;;;;1885345;76;21253;-83
2022/08/12 13:40:10;;;;;;;9.73;5.00;;;28.30;98.50;;;;;;1895999;74;21239;-84
2022/08/12 13:42:43;;;;;;;9.83;4.67;;;28.30;98.50;;;;;;1887323;74;21209;-83
2022/08/12 13:45:14;;;;;;;10.30;4.78;;;28.30;98.60;;;;;;1905332;74;21544;-83
2022/08/12 13:47:47;;;;;;;8.85;4.40;;;28.30;98.60;;;;;;1852257;76;21163;-83
2022/08/12 13:50:20;;;;;;;9.93;5.33;;;28.30;98.70;;;;;;1843161;76;21105;-84
2022/08/12 13:52:53;;;;;;;13.22;6.33;;;28.30;98.70;;;;;;1848467;76;21141;-83
2022/08/12 13:55:32;;;;;;;12.33;6.75;;;28.30;98.80;;;;;;1828543;76;21563;-82
2022/08/12 13:58:05;;;;;;;16.42;8.13;;;28.30;98.90;;;;;;1895837;74;21146;-82
2022/08/12 14:00:37;;;;;;;13.72;9.53;;;28.30;99.00;;;;;;1881541;74;21142;-82
2022/08/12 14:03:13;;;;;;;17.98;8.98;;;28.30;99.00;;;;;;1876516;75;21175;-82
2022/08/12 14:05:44;;;;;;;15.10;9.13;;;28.30;99.10;;;;;;1845125;76;21176;-85
2022/08/12 14:08:17;;;;;;;17.42;9.48;;;28.30;99.20;;;;;;1887747;73;21169;-83
2022/08/12 14:10:55;;;;;;;12.58;8.68;;;28.30;99.30;;;;;;1878584;76;21174;-82
2022/08/12 14:13:27;;;;;;;11.35;8.33;;;28.30;99.40;;;;;;1877346;76;21151;-82
2022/08/12 14:16:02;;;;;;;13.03;9.28;;;28.30;99.60;;;;;;1821769;77;21223;-82
2022/08/12 14:18:35;;;;;;;18.07;9.88;;;28.30;99.90;;;;;;1834018;77;21243;-83
2022/08/12 14:21:10;;;;;;;17.45;10.70;;;28.20;99.90;;;;;;1894279;76;21079;-83
2022/08/12 14:23:52;;;;;;;17.67;10.70;;;28.20;99.90;;;;;;1878593;76;21125;-82
2022/08/12 14:26:23;;;;;;;17.27;10.05;;;28.20;99.90;;;;;;1888715;76;21166;-82
2022/08/12 14:28:53;;;;;;;17.92;10.35;;;28.20;99.90;;;;;;1846649;75;21151;-82
2022/08/12 14:31:25;;;;;;;16.32;9.85;;;28.20;99.90;;;;;;1857200;76;21232;-82
2022/08/12 14:34:01;;;;;;;17.90;10.35;;;28.20;99.90;;;;;;1844170;76;21116;-84
2022/08/12 14:36:33;;;;;;;18.30;10.55;;;28.20;99.90;;;;;;1827141;78;21254;-82
2022/08/12 14:39:08;;;;;;;19.62;10.60;;;28.10;99.90;;;;;;1826839;78;21200;-82
2022/08/12 14:41:41;;;;;;;17.80;10.80;;;28.10;99.90;;;;;;1838117;76;21628;-82
2022/08/12 14:44:13;;;;;;;19.70;10.28;;;28.10;99.90;;;;;;1886497;76;21239;-83
2022/08/12 14:46:45;;;;;;;18.70;10.48;;;28.10;99.90;;;;;;1880887;76;21173;-81
2022/08/12 14:49:18;;;;;;;16.75;10.13;;;28.00;99.90;;;;;;1857204;75;21181;-83
2022/08/12 14:51:50;;;;;;;18.85;10.45;;;28.00;99.90;;;;;;1844849;77;21175;-83
2022/08/12 14:54:22;;;;;;;13.28;9.50;;;28.00;99.90;;;;;;1843211;76;21134;-83
2022/08/12 14:56:55;;;;;;;13.65;9.25;;;28.00;99.90;;;;;;1864559;75;21099;-83
2022/08/12 15:02:06;;;;;;;18.12;9.03;;;27.90;99.90;;;;;;1849488;76;21165;-82
2022/08/12 15:04:38;;;;;;;16.75;8.15;;;27.90;99.90;;;;;;1850778;75;21845;-82
2022/08/12 15:07:12;;;;;;;14.47;8.18;;;27.90;99.90;;;;;;1864717;76;21217;-83
2022/08/12 15:09:44;;;;;;;11.08;7.67;;;27.90;99.90;;;;;;1848009;76;21111;-83